createdAt,value
2018-06-09T00:02:03.843Z,67.40
2018-06-09T00:05:07.440Z,67.86
2018-06-09T00:08:11.118Z,67.77
2018-06-09T00:11:14.710Z,67.96
2018-06-09T00:14:18.284Z,68.28
2018-06-09T00:17:21.868Z,68.54
2018-06-09T00:20:25.480Z,68.68
2018-06-09T00:23:29.077Z,69.36
2018-06-09T00:26:32.814Z,69.57
2018-06-09T00:29:36.384Z,69.76
2018-06-09T00:32:39.975Z,70.09
2018-06-09T00:35:43.606Z,70.14
2018-06-09T00:38:47.200Z,70.34
2018-06-09T00:41:50.815Z,70.37
2018-06-09T00:44:54.376Z,70.45
2018-06-09T00:47:58.055Z,70.63
2018-06-09T00:51:01.603Z,70.63
2018-06-09T00:54:05.226Z,70.89
2018-06-09T00:57:08.788Z,70.73
2018-06-09T01:00:12.314Z,70.40
2018-06-09T01:03:15.932Z,70.09
2018-06-09T01:06:19.491Z,70.38
2018-06-09T01:09:23.106Z,70.48
2018-06-09T01:12:26.815Z,70.36
2018-06-09T01:15:30.437Z,70.49
2018-06-09T01:18:34.018Z,70.63
2018-06-09T01:21:37.705Z,70.46
2018-06-09T01:24:41.504Z,70.71
2018-06-09T01:27:45.141Z,70.98
2018-06-09T01:30:48.773Z,70.76
2018-06-09T01:33:52.365Z,70.34
2018-06-09T01:36:55.936Z,70.15
2018-06-09T01:39:59.511Z,70.20
2018-06-09T01:43:03.137Z,70.51
2018-06-09T01:46:06.683Z,70.66
2018-06-09T01:49:10.394Z,71.08
2018-06-09T01:52:14.072Z,71.29
2018-06-09T01:55:17.672Z,71.40
2018-06-09T01:58:21.199Z,71.43
2018-06-09T02:01:24.849Z,71.88
2018-06-09T02:04:28.412Z,71.94
2018-06-09T02:07:32.117Z,72.49
2018-06-09T02:10:35.750Z,72.79
2018-06-09T02:13:39.459Z,73.27
2018-06-09T02:16:43.128Z,73.60
2018-06-09T02:19:46.684Z,74.53
2018-06-09T02:22:50.285Z,75.42
2018-06-09T02:25:53.938Z,76.13
2018-06-09T02:28:57.496Z,76.83
2018-06-09T02:32:01.048Z,77.78
2018-06-09T02:35:04.842Z,78.32
2018-06-09T02:38:08.387Z,78.91
2018-06-09T02:41:12.083Z,79.06
2018-06-09T02:44:15.770Z,79.19
2018-06-09T02:47:19.443Z,79.12
2018-06-09T02:50:23.030Z,79.06
2018-06-09T02:53:26.705Z,79.09
2018-06-09T02:56:30.364Z,79.22
2018-06-09T02:59:34.195Z,78.84
2018-06-09T03:02:37.936Z,78.41
2018-06-09T03:05:41.619Z,77.81
2018-06-09T03:08:45.150Z,78.35
2018-06-09T03:11:49.634Z,78.17
2018-06-09T03:14:53.220Z,77.69
2018-06-09T03:17:56.815Z,77.77
2018-06-09T03:21:00.590Z,77.84
2018-06-09T03:24:04.249Z,77.46
2018-06-09T03:27:07.897Z,77.16
2018-06-09T03:30:11.533Z,77.10
2018-06-09T03:33:15.162Z,76.86
2018-06-09T03:36:18.752Z,76.98
2018-06-09T03:39:22.348Z,76.87
2018-06-09T03:42:25.927Z,77.07
2018-06-09T03:45:29.676Z,77.06
2018-06-09T03:48:33.385Z,77.19
2018-06-09T03:51:36.912Z,77.56
2018-06-09T03:54:40.529Z,78.01
2018-06-09T03:57:44.290Z,77.42
2018-06-09T04:00:47.874Z,77.56
2018-06-09T04:03:51.490Z,77.25
2018-06-09T04:06:55.017Z,77.45
2018-06-09T04:09:58.604Z,77.25
2018-06-09T04:13:02.174Z,77.16
2018-06-09T04:16:05.725Z,76.85
2018-06-09T04:19:09.303Z,77.12
2018-06-09T04:22:12.909Z,77.06
2018-06-09T04:25:16.661Z,77.15
2018-06-09T04:28:20.335Z,77.35
2018-06-09T04:31:23.935Z,77.37
2018-06-09T04:34:27.560Z,77.25
2018-06-09T04:37:32.033Z,77.33
2018-06-09T04:40:35.622Z,77.28
2018-06-09T04:43:39.191Z,77.42
2018-06-09T04:46:42.824Z,77.16
2018-06-09T04:49:46.412Z,77.44
2018-06-09T04:52:50.004Z,77.13
2018-06-09T04:55:53.552Z,77.05
2018-06-09T04:58:57.131Z,77.39
2018-06-09T05:02:00.771Z,77.08
2018-06-09T05:05:04.346Z,77.26
2018-06-09T05:08:10.805Z,77.06
2018-06-09T05:11:14.572Z,76.95
2018-06-09T05:14:18.167Z,76.78
2018-06-09T05:17:21.933Z,76.53
2018-06-09T05:20:25.701Z,75.66
2018-06-09T05:23:29.407Z,75.80
2018-06-09T05:26:33.051Z,75.40
2018-06-09T05:29:36.656Z,75.65
2018-06-09T05:32:40.228Z,76.53
2018-06-09T05:35:43.827Z,76.26
2018-06-09T05:38:47.418Z,76.22
2018-06-09T05:41:51.061Z,75.20
2018-06-09T05:44:54.703Z,75.72
2018-06-09T05:47:58.347Z,74.63
2018-06-09T05:51:01.973Z,73.87
2018-06-09T05:54:05.599Z,74.14
2018-06-09T05:57:09.197Z,74.72
2018-06-09T06:00:12.894Z,74.85
2018-06-09T06:03:16.488Z,75.06
2018-06-09T06:06:20.185Z,75.04
2018-06-09T06:09:23.789Z,74.48
2018-06-09T06:12:27.402Z,72.14
2018-06-09T06:15:30.978Z,72.18
2018-06-09T06:18:34.682Z,69.37
2018-06-09T06:21:38.328Z,69.79
2018-06-09T06:24:42.062Z,67.87
2018-06-09T06:27:45.658Z,66.89
2018-06-09T06:30:49.303Z,64.71
2018-06-09T06:33:52.887Z,64.87
2018-06-09T06:36:57.316Z,61.10
2018-06-09T06:40:00.927Z,56.20
2018-06-09T06:43:04.538Z,55.89
2018-06-09T06:46:08.154Z,53.77
2018-06-09T06:49:11.742Z,51.81
2018-06-09T06:52:15.410Z,52.94
2018-06-09T06:55:19.062Z,56.41
2018-06-09T06:58:22.729Z,55.44
2018-06-09T07:01:26.316Z,56.54
2018-06-09T07:04:29.887Z,60.28
2018-06-09T07:07:33.648Z,61.50
2018-06-09T07:10:37.265Z,62.48
2018-06-09T07:13:40.929Z,59.71
2018-06-09T07:16:44.964Z,60.49
2018-06-09T07:19:48.629Z,63.34
2018-06-09T07:22:52.365Z,66.11
2018-06-09T07:25:56.124Z,67.58
2018-06-09T07:28:59.770Z,68.05
2018-06-09T07:32:03.520Z,67.04
2018-06-09T07:35:07.207Z,66.80
2018-06-09T07:38:10.817Z,69.21
2018-06-09T07:41:14.539Z,67.65
2018-06-09T07:44:18.223Z,68.04
2018-06-09T07:47:21.837Z,67.31
2018-06-09T07:50:25.501Z,66.36
2018-06-09T07:53:29.163Z,66.38
2018-06-09T07:56:32.868Z,66.05
2018-06-09T07:59:36.594Z,67.08
2018-06-09T08:02:40.280Z,67.92
2018-06-09T08:05:43.931Z,66.36
2018-06-09T08:08:47.519Z,66.57
2018-06-09T08:11:51.274Z,65.70
2018-06-09T08:14:54.973Z,65.06
2018-06-09T08:17:58.678Z,65.25
2018-06-09T08:21:02.258Z,67.44
2018-06-09T08:24:06.064Z,65.44
2018-06-09T08:27:09.768Z,64.02
2018-06-09T08:30:13.406Z,65.05
2018-06-09T08:33:17.060Z,64.24
2018-06-09T08:36:20.705Z,62.87
2018-06-09T08:39:24.399Z,65.03
2018-06-09T08:42:28.078Z,65.08
2018-06-09T08:45:31.674Z,62.95
2018-06-09T08:48:35.519Z,61.90
2018-06-09T08:51:39.299Z,63.55
2018-06-09T08:54:42.898Z,60.97
2018-06-09T08:57:46.549Z,62.41
2018-06-09T09:00:50.168Z,61.49
2018-06-09T09:03:53.738Z,60.81
2018-06-09T09:06:57.295Z,60.95
2018-06-09T09:10:00.924Z,59.01
2018-06-09T09:13:04.598Z,59.25
2018-06-09T09:16:08.300Z,59.54
2018-06-09T09:19:11.995Z,60.37
2018-06-09T09:22:15.679Z,60.21
2018-06-09T09:25:19.475Z,61.49
2018-06-09T09:28:23.117Z,60.49
2018-06-09T09:31:26.737Z,56.75
2018-06-09T09:34:30.464Z,58.21
2018-06-09T09:37:34.090Z,57.85
2018-06-09T09:40:37.794Z,57.66
2018-06-09T09:43:41.444Z,56.79
2018-06-09T09:46:45.194Z,58.11
2018-06-09T09:49:48.840Z,56.72
2018-06-09T09:52:52.570Z,58.69
2018-06-09T09:55:56.151Z,56.60
2018-06-09T09:58:59.719Z,53.54
2018-06-09T10:02:03.263Z,54.50
2018-06-09T10:05:06.974Z,53.70
2018-06-09T10:08:10.556Z,54.24
2018-06-09T10:11:14.241Z,54.10
2018-06-09T10:14:17.881Z,50.32
2018-06-09T10:17:21.571Z,50.94
2018-06-09T10:20:25.144Z,49.13
2018-06-09T10:23:28.858Z,48.17
2018-06-09T10:26:32.521Z,47.75
2018-06-09T10:29:36.215Z,48.32
2018-06-09T10:32:39.869Z,48.71
2018-06-09T10:35:43.555Z,50.10
2018-06-09T10:38:47.275Z,51.22
2018-06-09T10:41:50.972Z,51.52
2018-06-09T10:44:54.555Z,50.99
2018-06-09T10:47:58.249Z,50.08
2018-06-09T10:51:08.383Z,47.52
2018-06-09T10:54:12.067Z,48.27
2018-06-09T10:57:15.691Z,46.05
2018-06-09T11:00:19.340Z,49.40
2018-06-09T11:03:23.027Z,41.79
2018-06-09T11:06:26.625Z,44.24
2018-06-09T11:09:30.259Z,46.63
2018-06-09T11:12:33.840Z,46.00
2018-06-09T11:15:37.470Z,46.72
2018-06-09T11:18:41.175Z,45.62
2018-06-09T11:21:44.914Z,48.03
2018-06-09T11:24:48.608Z,48.10
2018-06-09T11:27:52.287Z,49.16
2018-06-09T11:30:56.264Z,48.31
2018-06-09T11:33:59.966Z,51.06
2018-06-09T11:37:03.606Z,49.29
2018-06-09T11:40:07.191Z,50.45
2018-06-09T11:43:10.829Z,49.17
2018-06-09T11:46:14.452Z,48.72
2018-06-09T11:49:18.117Z,47.56
2018-06-09T11:52:21.715Z,50.48
2018-06-09T11:55:25.307Z,51.33
2018-06-09T11:58:28.945Z,49.87
2018-06-09T12:01:32.517Z,47.87
2018-06-09T12:04:36.191Z,49.84
2018-06-09T12:07:39.832Z,50.13
2018-06-09T12:10:43.495Z,49.77
2018-06-09T12:13:47.082Z,51.03
2018-06-09T12:16:50.700Z,47.93
2018-06-09T12:19:54.227Z,50.56
2018-06-09T12:22:57.919Z,49.00
2018-06-09T12:26:01.796Z,48.46
2018-06-09T12:29:05.492Z,47.59
2018-06-09T12:32:09.136Z,47.85
2018-06-09T12:35:12.874Z,47.75
2018-06-09T12:38:16.655Z,46.02
2018-06-09T12:41:20.370Z,46.35
2018-06-09T12:44:23.956Z,44.82
2018-06-09T12:47:27.607Z,43.26
2018-06-09T12:50:31.234Z,45.01
2018-06-09T12:53:34.811Z,45.11
2018-06-09T12:56:38.483Z,44.61
2018-06-09T12:59:42.101Z,43.56
2018-06-09T13:02:45.721Z,45.88
2018-06-09T13:05:49.385Z,45.17
2018-06-09T13:08:53.015Z,41.63
2018-06-09T13:11:56.532Z,40.15
2018-06-09T13:15:00.236Z,40.22
2018-06-09T13:18:04.336Z,40.88
2018-06-09T13:21:07.902Z,42.23
2018-06-09T13:24:11.652Z,39.25
2018-06-09T13:27:15.221Z,38.31
2018-06-09T13:30:18.997Z,39.30
2018-06-09T13:33:22.593Z,39.93
2018-06-09T13:36:26.177Z,38.54
2018-06-09T13:39:29.876Z,41.12
2018-06-09T13:42:33.692Z,39.49
2018-06-09T13:45:37.396Z,37.07
2018-06-09T13:48:40.967Z,40.32
2018-06-09T13:51:44.626Z,37.68
2018-06-09T13:54:48.260Z,42.44
2018-06-09T13:57:51.831Z,34.68
2018-06-09T14:00:55.375Z,42.83
2018-06-09T14:03:59.002Z,37.35
2018-06-09T14:07:02.759Z,34.83
2018-06-09T14:10:06.406Z,35.00
2018-06-09T14:13:10.054Z,37.50
2018-06-09T14:16:14.559Z,30.10
2018-06-09T14:19:18.186Z,34.69
2018-06-09T14:22:21.764Z,36.39
2018-06-09T14:25:25.498Z,42.73
2018-06-09T14:28:29.156Z,41.61
2018-06-09T14:31:32.819Z,33.80
2018-06-09T14:34:36.392Z,32.65
2018-06-09T14:37:39.997Z,33.59
2018-06-09T14:40:43.636Z,41.10
2018-06-09T14:43:47.273Z,39.83
2018-06-09T14:46:50.889Z,41.13
2018-06-09T14:49:54.525Z,38.90
2018-06-09T14:52:58.103Z,41.95
2018-06-09T14:56:01.723Z,43.36
2018-06-09T14:59:05.384Z,42.34
2018-06-09T15:02:08.937Z,30.76
2018-06-09T15:05:12.535Z,32.46
2018-06-09T15:08:16.144Z,32.57
2018-06-09T15:11:19.766Z,33.57
2018-06-09T15:14:23.498Z,35.29
2018-06-09T15:17:27.123Z,40.08
2018-06-09T15:20:30.798Z,35.03
2018-06-09T15:23:34.558Z,34.97
2018-06-09T15:26:41.689Z,32.86
2018-06-09T15:29:45.463Z,33.07
2018-06-09T15:32:49.157Z,34.02
2018-06-09T15:35:52.838Z,37.32
2018-06-09T15:38:56.580Z,38.57
2018-06-09T15:42:00.143Z,41.68
2018-06-09T15:45:03.767Z,40.54
2018-06-09T15:48:07.368Z,41.79
2018-06-09T15:51:10.960Z,40.49
2018-06-09T15:54:14.578Z,41.58
2018-06-09T15:57:18.193Z,42.50
2018-06-09T16:00:21.869Z,42.17
2018-06-09T16:03:25.628Z,42.16
2018-06-09T16:06:29.282Z,43.69
2018-06-09T16:09:33.639Z,43.88
2018-06-09T16:12:37.252Z,43.55
2018-06-09T16:15:40.850Z,43.20
2018-06-09T16:18:47.439Z,41.82
2018-06-09T16:21:51.141Z,41.31
2018-06-09T16:24:54.846Z,42.80
2018-06-09T16:27:58.616Z,41.73
2018-06-09T16:31:02.230Z,41.36
2018-06-09T16:34:05.880Z,42.03
2018-06-09T16:37:09.508Z,41.90
2018-06-09T16:40:13.216Z,40.77
2018-06-09T16:43:16.855Z,41.40
2018-06-09T16:46:20.617Z,41.98
2018-06-09T16:49:24.269Z,40.11
2018-06-09T16:52:27.894Z,39.27
2018-06-09T16:55:31.615Z,39.09
2018-06-09T16:58:35.253Z,35.66
2018-06-09T17:01:38.871Z,32.79
2018-06-09T17:04:42.554Z,30.84
2018-06-09T17:07:46.179Z,29.92
2018-06-09T17:10:49.908Z,29.62
2018-06-09T17:13:53.566Z,28.60
2018-06-09T17:16:57.152Z,28.66
2018-06-09T17:20:00.748Z,27.63
2018-06-09T17:23:04.519Z,28.05
2018-06-09T17:26:08.304Z,28.42
2018-06-09T17:29:11.965Z,28.30
2018-06-09T17:32:15.668Z,27.90
2018-06-09T17:35:19.251Z,29.14
2018-06-09T17:38:22.864Z,29.44
2018-06-09T17:41:26.619Z,29.69
2018-06-09T17:44:30.240Z,29.59
2018-06-09T17:47:33.833Z,29.74
2018-06-09T17:50:37.544Z,29.80
2018-06-09T17:53:41.315Z,30.99
2018-06-09T17:56:44.926Z,30.95
2018-06-09T17:59:48.566Z,31.18
2018-06-09T18:02:52.173Z,32.18
2018-06-09T18:05:55.793Z,30.93
2018-06-09T18:08:59.417Z,32.01
2018-06-09T18:12:03.032Z,33.51
2018-06-09T18:15:06.786Z,35.55
2018-06-09T18:18:10.477Z,37.22
2018-06-09T18:21:14.192Z,38.85
2018-06-09T18:24:17.900Z,40.14
2018-06-09T18:27:21.521Z,40.45
2018-06-09T18:30:25.246Z,39.89
2018-06-09T18:33:29.035Z,40.99
2018-06-09T18:36:32.632Z,42.60
2018-06-09T18:39:36.360Z,43.33
2018-06-09T18:42:39.950Z,42.87
2018-06-09T18:45:43.701Z,43.31
2018-06-09T18:48:47.285Z,43.95
2018-06-09T18:51:50.917Z,45.70
2018-06-09T18:54:54.535Z,45.90
2018-06-09T18:57:58.173Z,46.39
2018-06-09T19:01:01.827Z,47.36
2018-06-09T19:04:05.703Z,49.03
2018-06-09T19:07:09.392Z,50.06
2018-06-09T19:10:12.990Z,50.71
2018-06-09T19:13:16.635Z,50.87
2018-06-09T19:16:20.225Z,52.29
2018-06-09T19:19:23.798Z,52.82
2018-06-09T19:22:27.512Z,53.26
2018-06-09T19:25:31.218Z,53.79
2018-06-09T19:28:34.792Z,54.10
2018-06-09T19:31:38.330Z,54.73
2018-06-09T19:34:41.952Z,54.86
2018-06-09T19:37:45.603Z,54.82
2018-06-09T19:40:49.238Z,54.92
2018-06-09T19:43:52.831Z,54.66
2018-06-09T19:46:56.462Z,55.34
2018-06-09T19:50:00.093Z,55.81
2018-06-09T19:53:03.772Z,55.96
2018-06-09T19:56:07.447Z,56.76
2018-06-09T19:59:11.078Z,57.47
2018-06-09T20:02:14.716Z,58.18
2018-06-09T20:05:18.407Z,58.09
2018-06-09T20:08:21.973Z,57.78
2018-06-09T20:11:25.644Z,57.49
2018-06-09T20:14:29.406Z,57.77
2018-06-09T20:17:33.033Z,58.23
2018-06-09T20:20:36.882Z,58.76
2018-06-09T20:23:40.632Z,59.16
2018-06-09T20:26:44.222Z,59.58
2018-06-09T20:29:47.923Z,59.83
2018-06-09T20:32:51.683Z,59.53
2018-06-09T20:35:55.260Z,59.75
2018-06-09T20:38:59.056Z,60.42
2018-06-09T20:42:02.861Z,61.44
2018-06-09T20:45:06.532Z,61.77
2018-06-09T20:48:10.203Z,61.69
2018-06-09T20:51:13.811Z,61.09
2018-06-09T20:54:17.458Z,62.04
2018-06-09T20:57:21.077Z,62.09
2018-06-09T21:00:24.807Z,62.25
2018-06-09T21:03:28.467Z,61.82
2018-06-09T21:06:31.858Z,62.20
2018-06-09T21:09:35.581Z,62.48
2018-06-09T21:12:39.258Z,62.64
2018-06-09T21:15:43.072Z,62.90
2018-06-09T21:18:46.808Z,63.66
2018-06-09T21:21:50.437Z,64.48
2018-06-09T21:24:54.328Z,65.23
2018-06-09T21:28:03.215Z,65.88
2018-06-09T21:31:12.287Z,67.00
2018-06-09T21:34:33.477Z,67.31
2018-06-09T21:37:43.195Z,68.23
2018-06-09T21:40:49.748Z,68.52
2018-06-09T21:43:54.959Z,68.77
2018-06-09T21:46:58.622Z,69.77
2018-06-09T21:50:02.310Z,69.92
2018-06-09T21:53:06.062Z,69.86
2018-06-09T21:56:09.692Z,70.57
2018-06-09T21:59:13.360Z,71.00
2018-06-09T22:02:16.984Z,71.13
2018-06-09T22:05:20.652Z,72.16
2018-06-09T22:08:24.359Z,72.55
2018-06-09T22:11:28.064Z,72.78
2018-06-09T22:14:31.838Z,72.99
2018-06-09T22:17:35.432Z,72.88
2018-06-09T22:20:39.097Z,73.46
2018-06-09T22:23:42.892Z,73.48
2018-06-09T22:26:46.559Z,73.47
2018-06-09T22:29:50.294Z,74.16
2018-06-09T22:32:54.884Z,74.85
2018-06-09T22:35:58.593Z,75.04
2018-06-09T22:39:02.167Z,75.08
2018-06-09T22:42:05.743Z,75.71
2018-06-09T22:45:09.553Z,76.25
2018-06-09T22:48:13.133Z,76.64
2018-06-09T22:51:16.754Z,76.98
2018-06-09T22:54:20.555Z,77.30
2018-06-09T22:57:24.193Z,78.06
2018-06-09T23:00:36.743Z,78.04
2018-06-09T23:03:40.513Z,78.77
2018-06-09T23:06:47.505Z,78.80
2018-06-09T23:09:51.175Z,79.71
2018-06-09T23:12:54.763Z,79.88
2018-06-09T23:15:58.412Z,79.82
2018-06-09T23:19:02.172Z,80.15
2018-06-09T23:22:05.893Z,80.79
2018-06-09T23:25:09.791Z,81.36
2018-06-09T23:28:13.437Z,81.60
2018-06-09T23:31:17.030Z,81.85
2018-06-09T23:34:20.640Z,82.05
2018-06-09T23:37:24.333Z,82.32
2018-06-09T23:40:27.998Z,82.48
2018-06-09T23:43:31.629Z,82.28
2018-06-09T23:46:35.388Z,82.76
2018-06-09T23:49:39.024Z,82.99
2018-06-09T23:52:42.588Z,83.37
2018-06-09T23:55:46.307Z,83.46
2018-06-09T23:58:49.882Z,83.58
